Time;durP1;ratioP1;P1;durP2;ratioP2;P2;SDS_P1;SDS_P2;PMS_P1;PMS_P2;Temp;Humidity;BMP_temperature;BMP_pressure;BME280_temperature;BME280_humidity;BME280_pressure;Samples;Min_cycle;Max_cycle;Signal;HPM_P1;HPM_P2
2022/07/17 00:00:49;;;;;;;;;;;;;;;10.91;36.57;96506.63;5006779;28;19988;-64
2022/07/17 00:03:15;;;;;;;;;;;;;;;10.94;37.19;96500.97;4989099;28;20408;-64
2022/07/17 00:05:41;;;;;;;;;;;;;;;10.92;36.94;96507.47;5006492;28;19974;-64
2022/07/17 00:08:06;;;;;;;;;;;;;;;10.99;36.67;96506.66;5006353;28;19985;-63
2022/07/17 00:10:32;;;;;;;;;;;;;;;11.04;36.85;96508.84;5006858;28;19974;-61
2022/07/17 00:12:57;;;;;;;;;;;;;;;10.96;37.21;96508.81;5007056;28;19993;-63
2022/07/17 00:15:22;;;;;;;;;;;;;;;10.96;36.62;96506.16;5006989;28;20069;-62
2022/07/17 00:17:48;;;;;;;;;;;;;;;10.98;36.97;96506.84;5007796;28;19994;-63
2022/07/17 00:20:13;;;;;;;;;;;;;;;10.99;36.66;96503.19;5002754;28;20009;-63
2022/07/17 00:22:38;;;;;;;;;;;;;;;11.00;36.37;96494.19;5007514;28;19985;-63
2022/07/17 00:25:04;;;;;;;;;;;;;;;11.02;36.41;96488.69;5008060;28;19997;-64
2022/07/17 00:27:29;;;;;;;;;;;;;;;11.01;36.23;96503.84;5007283;28;20340;-63
2022/07/17 00:29:55;;;;;;;;;;;;;;;10.97;36.31;96494.50;5007186;28;20017;-64
2022/07/17 00:32:20;;;;;;;;;;;;;;;10.87;36.65;96495.47;5006716;28;20438;-64
2022/07/17 00:34:45;;;;;;;;;;;;;;;10.86;36.06;96487.63;4990398;28;20077;-63
2022/07/17 00:37:10;;;;;;;;;;;;;;;10.79;36.31;96481.25;5007365;28;20001;-63
2022/07/17 00:39:36;;;;;;;;;;;;;;;10.69;36.68;96486.69;5006646;28;19990;-64
2022/07/17 00:42:01;;;;;;;;;;;;;;;10.66;36.69;96485.19;5007514;28;20076;-63
2022/07/17 00:44:26;;;;;;;;;;;;;;;10.64;36.65;96486.34;5006879;28;20381;-63
2022/07/17 00:46:51;;;;;;;;;;;;;;;10.61;36.63;96482.97;5007774;28;20013;-62
2022/07/17 00:49:17;;;;;;;;;;;;;;;10.49;37.17;96486.91;5007855;28;20000;-63
2022/07/17 00:51:42;;;;;;;;;;;;;;;10.48;37.61;96483.41;5006668;28;20198;-63
2022/07/17 00:54:07;;;;;;;;;;;;;;;10.40;37.45;96486.00;5006139;28;19978;-64
2022/07/17 00:56:32;;;;;;;;;;;;;;;10.41;37.78;96484.19;4989210;28;20029;-63
2022/07/17 00:58:58;;;;;;;;;;;;;;;10.40;37.60;96487.84;5007224;28;20398;-63
2022/07/17 01:01:23;;;;;;;;;;;;;;;10.43;37.78;96482.19;5006690;28;19994;-63
2022/07/17 01:03:48;;;;;;;;;;;;;;;10.41;37.58;96478.88;5006730;28;20077;-62
2022/07/17 01:06:13;;;;;;;;;;;;;;;10.41;37.71;96478.88;5007321;28;20001;-62
2022/07/17 01:08:39;;;;;;;;;;;;;;;10.41;37.52;96473.53;5007255;28;19993;-64
2022/07/17 01:11:04;;;;;;;;;;;;;;;10.40;37.55;96478.03;5004260;28;19986;-63
2022/07/17 01:13:30;;;;;;;;;;;;;;;10.32;37.84;96476.16;4973509;28;19989;-62
2022/07/17 01:15:55;;;;;;;;;;;;;;;10.29;38.09;96478.28;5004514;28;20010;-64
2022/07/17 01:18:20;;;;;;;;;;;;;;;10.23;37.84;96477.91;4989747;28;19981;-62
2022/07/17 01:20:46;;;;;;;;;;;;;;;10.25;38.24;96482.22;5007025;28;19985;-63
2022/07/17 01:23:12;;;;;;;;;;;;;;;10.22;38.25;96483.38;4988637;28;19970;-63
2022/07/17 01:25:37;;;;;;;;;;;;;;;10.28;37.79;96489.91;4989838;28;20345;-62
2022/07/17 01:28:02;;;;;;;;;;;;;;;10.26;38.20;96482.06;5006093;28;20607;-63
2022/07/17 01:30:27;;;;;;;;;;;;;;;10.23;37.53;96488.56;5005903;28;19973;-64
2022/07/17 01:32:53;;;;;;;;;;;;;;;10.22;38.30;96480.72;5007129;28;20418;-63
2022/07/17 01:35:18;;;;;;;;;;;;;;;10.21;38.03;96482.53;5006691;28;19965;-63
2022/07/17 01:37:43;;;;;;;;;;;;;;;10.16;37.87;96476.84;5007729;28;19974;-62
2022/07/17 01:40:09;;;;;;;;;;;;;;;10.13;37.72;96479.00;5007246;28;19993;-63
2022/07/17 01:42:35;;;;;;;;;;;;;;;10.08;38.01;96484.78;5008029;28;20508;-62
2022/07/17 01:45:00;;;;;;;;;;;;;;;10.03;38.05;96487.03;5007936;28;20000;-62
2022/07/17 01:47:25;;;;;;;;;;;;;;;9.97;38.01;96491.97;5007607;28;20005;-63
2022/07/17 01:49:51;;;;;;;;;;;;;;;9.90;38.12;96495.38;5008330;28;20566;-63
2022/07/17 01:52:17;;;;;;;;;;;;;;;9.87;37.90;96487.72;5007817;28;20450;-62
2022/07/17 01:54:42;;;;;;;;;;;;;;;9.88;38.81;96498.19;5008456;28;19977;-63
2022/07/17 01:57:07;;;;;;;;;;;;;;;9.86;38.02;96492.19;5007203;28;20001;-62
2022/07/17 01:59:33;;;;;;;;;;;;;;;9.83;38.82;96490.66;4997737;28;20049;-63
2022/07/17 02:01:58;;;;;;;;;;;;;;;9.84;38.64;96488.84;4996986;28;19988;-63
2022/07/17 02:04:23;;;;;;;;;;;;;;;9.85;38.78;96490.53;4997639;28;19994;-62
2022/07/17 02:06:48;;;;;;;;;;;;;;;9.88;38.21;96484.06;4993777;28;19978;-64
2022/07/17 02:09:14;;;;;;;;;;;;;;;9.91;38.62;96499.72;4978128;28;19990;-63
2022/07/17 02:11:39;;;;;;;;;;;;;;;9.94;38.49;96494.94;4997484;28;19994;-63
2022/07/17 02:14:05;;;;;;;;;;;;;;;9.98;38.76;96498.13;4979095;28;19981;-62
2022/07/17 02:16:30;;;;;;;;;;;;;;;9.95;38.80;96503.75;4995354;28;20007;-62
2022/07/17 02:18:55;;;;;;;;;;;;;;;9.88;39.01;96508.00;4994694;28;19970;-62
2022/07/17 02:21:20;;;;;;;;;;;;;;;9.90;39.12;96508.69;4992946;28;19986;-62
2022/07/17 02:23:45;;;;;;;;;;;;;;;9.91;38.92;96507.69;4991852;28;20216;-63
2022/07/17 02:26:11;;;;;;;;;;;;;;;9.94;39.05;96505.59;4991276;28;19984;-62
2022/07/17 02:28:36;;;;;;;;;;;;;;;9.93;39.24;96505.72;4979774;28;20520;-62
2022/07/17 02:31:01;;;;;;;;;;;;;;;9.94;39.11;96502.06;4991083;28;20331;-62
2022/07/17 02:33:26;;;;;;;;;;;;;;;9.87;39.23;96501.00;4991931;28;20415;-64
2022/07/17 02:35:52;;;;;;;;;;;;;;;9.87;39.20;96493.03;4992318;28;20000;-63
2022/07/17 02:38:17;;;;;;;;;;;;;;;9.89;39.40;96496.38;4999084;28;19980;-63
2022/07/17 02:40:42;;;;;;;;;;;;;;;9.94;39.44;96489.63;4993844;28;20026;-63
2022/07/17 02:43:07;;;;;;;;;;;;;;;9.95;38.96;96495.75;4997937;28;20163;-61
2022/07/17 02:45:33;;;;;;;;;;;;;;;9.97;39.04;96494.63;4996565;28;19998;-64
2022/07/17 02:47:58;;;;;;;;;;;;;;;9.94;39.50;96489.63;4999862;28;20036;-64
2022/07/17 02:50:23;;;;;;;;;;;;;;;9.94;39.88;96492.28;4995713;28;19974;-62
2022/07/17 02:52:49;;;;;;;;;;;;;;;10.00;38.96;96490.84;4993256;28;20053;-61
2022/07/17 02:55:14;;;;;;;;;;;;;;;10.01;39.46;96492.50;4995494;28;20475;-62
2022/07/17 02:57:39;;;;;;;;;;;;;;;9.96;38.73;96490.28;4974863;28;19993;-63
2022/07/17 03:00:05;;;;;;;;;;;;;;;9.92;39.45;96485.41;5003631;28;20073;-64
2022/07/17 03:02:31;;;;;;;;;;;;;;;9.91;39.16;96486.41;5003709;28;19973;-65
2022/07/17 03:04:56;;;;;;;;;;;;;;;9.94;39.25;96488.78;5004655;28;19997;-63
2022/07/17 03:07:21;;;;;;;;;;;;;;;10.00;38.71;96488.19;5005030;28;19981;-63
2022/07/17 03:09:46;;;;;;;;;;;;;;;10.03;38.89;96490.50;5001125;28;19970;-62
2022/07/17 03:12:12;;;;;;;;;;;;;;;9.99;39.39;96497.13;5005322;28;19997;-64
2022/07/17 03:14:37;;;;;;;;;;;;;;;10.01;39.09;96481.84;5004893;28;19978;-63
2022/07/17 03:17:02;;;;;;;;;;;;;;;10.03;39.01;96473.72;5000389;28;19994;-64
2022/07/17 03:19:27;;;;;;;;;;;;;;;9.90;39.70;96484.75;4995408;28;19996;-63
2022/07/17 03:21:53;;;;;;;;;;;;;;;9.98;38.73;96488.31;5003259;28;19969;-64
2022/07/17 03:24:18;;;;;;;;;;;;;;;10.08;39.12;96490.94;5003612;28;20550;-63
2022/07/17 03:26:43;;;;;;;;;;;;;;;10.12;38.65;96486.13;5000887;28;19970;-63
2022/07/17 03:29:09;;;;;;;;;;;;;;;10.15;38.54;96484.97;4998334;28;20042;-64
2022/07/17 03:31:34;;;;;;;;;;;;;;;10.18;38.40;96484.69;5001650;28;20430;-63
2022/07/17 03:33:59;;;;;;;;;;;;;;;10.21;38.79;96492.38;5001940;28;19982;-63
2022/07/17 03:36:25;;;;;;;;;;;;;;;10.19;38.63;96491.66;5002833;28;19998;-64
2022/07/17 03:38:50;;;;;;;;;;;;;;;10.19;38.94;96497.00;5000256;28;20017;-64
2022/07/17 03:41:15;;;;;;;;;;;;;;;10.21;38.72;96495.84;4987850;28;20049;-65
2022/07/17 03:43:41;;;;;;;;;;;;;;;10.21;38.93;96495.03;5006103;28;19994;-64
2022/07/17 03:46:06;;;;;;;;;;;;;;;10.13;39.10;96497.63;5006833;28;20489;-64
2022/07/17 03:48:31;;;;;;;;;;;;;;;10.13;39.16;96492.31;5006065;28;20425;-64
2022/07/17 03:50:56;;;;;;;;;;;;;;;10.13;38.86;96492.31;5007067;28;20286;-64
2022/07/17 03:53:22;;;;;;;;;;;;;;;10.20;39.15;96498.69;5005664;28;19990;-64
2022/07/17 03:55:47;;;;;;;;;;;;;;;10.20;38.85;96498.69;5006751;28;20461;-63
2022/07/17 03:58:12;;;;;;;;;;;;;;;10.22;38.96;96496.69;4984126;28;20358;-63
2022/07/17 04:00:37;;;;;;;;;;;;;;;10.18;38.81;96501.50;5005765;28;19994;-65
2022/07/17 04:03:03;;;;;;;;;;;;;;;10.15;39.28;96503.59;5006870;28;20421;-64
2022/07/17 04:05:28;;;;;;;;;;;;;;;10.25;39.05;96495.53;5007311;28;19990;-64
2022/07/17 04:07:53;;;;;;;;;;;;;;;10.33;38.56;96499.09;5005618;28;19990;-65
2022/07/17 04:10:18;;;;;;;;;;;;;;;10.42;38.64;96505.34;5006205;28;20021;-65
2022/07/17 04:12:44;;;;;;;;;;;;;;;10.49;38.71;96513.53;5005857;28;19993;-64
2022/07/17 04:15:09;;;;;;;;;;;;;;;10.50;38.47;96512.53;5007786;28;20255;-64
2022/07/17 04:17:35;;;;;;;;;;;;;;;10.57;38.51;96510.91;5008509;28;19977;-64
2022/07/17 04:20:00;;;;;;;;;;;;;;;10.63;38.59;96520.09;5008273;28;19993;-63
2022/07/17 04:22:25;;;;;;;;;;;;;;;10.61;38.22;96517.59;5009848;28;19985;-63
2022/07/17 04:24:50;;;;;;;;;;;;;;;10.67;38.23;96512.66;5007581;28;20001;-61
2022/07/17 04:27:16;;;;;;;;;;;;;;;10.73;37.78;96517.34;5008503;28;20020;-63
2022/07/17 04:29:41;;;;;;;;;;;;;;;10.72;38.12;96515.69;5008457;28;19970;-63
2022/07/17 04:32:06;;;;;;;;;;;;;;;10.73;37.93;96514.69;5007910;28;19990;-62
2022/07/17 04:34:32;;;;;;;;;;;;;;;10.71;38.22;96511.34;5008515;28;20174;-64
2022/07/17 04:36:58;;;;;;;;;;;;;;;10.74;38.08;96519.84;5008599;28;19996;-63
2022/07/17 04:39:23;;;;;;;;;;;;;;;10.81;38.33;96522.72;5008749;28;19978;-65
2022/07/17 04:41:49;;;;;;;;;;;;;;;10.85;38.18;96526.75;5006938;28;19974;-65
2022/07/17 04:44:14;;;;;;;;;;;;;;;10.93;38.23;96525.13;5006215;28;19982;-63
2022/07/17 04:46:39;;;;;;;;;;;;;;;10.98;37.91;96531.66;4992526;28;20442;-63
2022/07/17 04:49:04;;;;;;;;;;;;;;;11.04;38.24;96534.66;5010832;28;20350;-63
2022/07/17 04:51:30;;;;;;;;;;;;;;;11.13;37.99;96537.22;5009889;28;19993;-63
2022/07/17 04:53:56;;;;;;;;;;;;;;;11.24;38.05;96543.28;5010276;28;19974;-63
2022/07/17 04:56:21;;;;;;;;;;;;;;;11.38;37.90;96545.38;5005320;28;19989;-63
2022/07/17 04:58:46;;;;;;;;;;;;;;;11.43;38.08;96542.22;5006056;28;20343;-65
2022/07/17 05:01:12;;;;;;;;;;;;;;;11.58;37.75;96542.44;5005127;28;20474;-64
2022/07/17 05:03:37;;;;;;;;;;;;;;;11.64;38.18;96544.47;5005879;28;19989;-64
2022/07/17 05:06:03;;;;;;;;;;;;;;;11.79;37.81;96540.34;4991567;28;19970;-63
2022/07/17 05:08:28;;;;;;;;;;;;;;;11.87;37.87;96537.69;5009574;28;19990;-63
2022/07/17 05:10:53;;;;;;;;;;;;;;;12.03;37.56;96536.84;5010655;28;20341;-62
2022/07/17 05:13:18;;;;;;;;;;;;;;;12.11;37.95;96546.75;5011551;28;19996;-65
2022/07/17 05:15:44;;;;;;;;;;;;;;;12.17;38.33;96538.06;5011532;28;19985;-63
2022/07/17 05:18:09;;;;;;;;;;;;;;;12.28;38.30;96537.75;5011282;28;19974;-63
2022/07/17 05:20:34;;;;;;;;;;;;;;;12.42;38.46;96541.59;5011025;28;19997;-63
2022/07/17 05:23:00;;;;;;;;;;;;;;;12.63;38.44;96548.28;5010943;28;20001;-63
2022/07/17 05:25:25;;;;;;;;;;;;;;;12.76;38.69;96546.91;5011517;28;20026;-63
2022/07/17 05:27:50;;;;;;;;;;;;;;;12.97;38.06;96553.53;5010839;28;20381;-63
2022/07/17 05:30:15;;;;;;;;;;;;;;;13.13;38.23;96542.84;5011298;28;20060;-63
2022/07/17 05:32:41;;;;;;;;;;;;;;;13.35;37.92;96552.97;5010534;28;20052;-63
2022/07/17 05:35:06;;;;;;;;;;;;;;;13.60;37.48;96552.88;5011134;28;19977;-63
2022/07/17 05:37:31;;;;;;;;;;;;;;;13.82;37.36;96554.78;5010976;28;20473;-65
2022/07/17 05:39:57;;;;;;;;;;;;;;;14.04;37.27;96556.84;5009977;28;19986;-64
2022/07/17 05:42:22;;;;;;;;;;;;;;;14.27;37.45;96550.66;5010973;28;19969;-63
2022/07/17 05:44:47;;;;;;;;;;;;;;;14.48;37.08;96547.31;5008728;28;19986;-64
2022/07/17 05:47:12;;;;;;;;;;;;;;;14.68;36.57;96555.69;5010668;28;19973;-64
2022/07/17 05:49:38;;;;;;;;;;;;;;;14.86;35.97;96559.94;5010954;28;19970;-63
2022/07/17 05:52:03;;;;;;;;;;;;;;;15.02;35.81;96553.56;5011181;28;19988;-64
2022/07/17 05:54:28;;;;;;;;;;;;;;;15.17;35.61;96558.94;5011249;28;19996;-64
2022/07/17 05:56:53;;;;;;;;;;;;;;;15.35;35.27;96557.72;5011057;28;20089;-64
2022/07/17 05:59:19;;;;;;;;;;;;;;;15.54;34.74;96563.56;5009318;28;20000;-63
2022/07/17 06:01:44;;;;;;;;;;;;;;;15.77;34.12;96558.06;5010033;28;20012;-62
2022/07/17 06:04:09;;;;;;;;;;;;;;;15.96;32.99;96562.03;5010434;28;19989;-64
2022/07/17 06:06:34;;;;;;;;;;;;;;;16.15;33.29;96559.75;5007292;28;20203;-64
2022/07/17 06:09:00;;;;;;;;;;;;;;;16.34;33.04;96565.50;5008854;28;20465;-64
2022/07/17 06:11:25;;;;;;;;;;;;;;;16.50;32.12;96557.22;5007387;28;20448;-65
2022/07/17 06:13:51;;;;;;;;;;;;;;;16.64;32.58;96562.69;5007647;28;20330;-64
2022/07/17 06:16:16;;;;;;;;;;;;;;;16.81;31.67;96555.19;5007386;28;19986;-64
2022/07/17 06:18:41;;;;;;;;;;;;;;;16.90;31.83;96555.88;5005377;28;19972;-64
2022/07/17 06:21:07;;;;;;;;;;;;;;;16.99;31.17;96554.69;5002955;28;20295;-66
2022/07/17 06:23:32;;;;;;;;;;;;;;;17.15;30.53;96552.75;5002991;28;20020;-65
2022/07/17 06:25:58;;;;;;;;;;;;;;;17.34;29.79;96563.84;5003220;28;20076;-64
2022/07/17 06:28:23;;;;;;;;;;;;;;;17.52;29.57;96558.75;5002310;28;19996;-63
2022/07/17 06:30:48;;;;;;;;;;;;;;;17.15;29.93;96567.03;5002472;28;20331;-62
2022/07/17 06:33:13;;;;;;;;;;;;;;;17.52;29.77;96572.22;5001696;28;19999;-63
2022/07/17 06:35:39;;;;;;;;;;;;;;;17.82;29.36;96568.41;5002788;28;20077;-63
2022/07/17 06:38:04;;;;;;;;;;;;;;;18.07;29.25;96573.28;4983929;28;19979;-63
2022/07/17 06:40:29;;;;;;;;;;;;;;;18.23;28.30;96582.03;5002827;28;19997;-62
2022/07/17 06:42:55;;;;;;;;;;;;;;;18.42;28.42;96577.69;5003094;28;19977;-63
2022/07/17 06:45:20;;;;;;;;;;;;;;;18.41;28.10;96576.03;5002174;28;19990;-64
2022/07/17 06:47:45;;;;;;;;;;;;;;;18.67;27.38;96580.66;4979229;28;20479;-66
2022/07/17 06:50:10;;;;;;;;;;;;;;;18.72;27.10;96588.13;5003972;28;19978;-64
2022/07/17 06:52:36;;;;;;;;;;;;;;;18.79;27.40;96588.97;5003187;28;19989;-65
2022/07/17 06:55:01;;;;;;;;;;;;;;;18.91;26.92;96585.66;5003309;28;20442;-63
2022/07/17 06:57:26;;;;;;;;;;;;;;;19.00;26.60;96591.66;4985781;28;20127;-63
2022/07/17 06:59:51;;;;;;;;;;;;;;;19.04;26.00;96582.13;5003356;28;20443;-64
2022/07/17 07:02:17;;;;;;;;;;;;;;;18.79;26.98;96580.88;5006638;28;20001;-65
2022/07/17 07:04:43;;;;;;;;;;;;;;;18.54;27.16;96584.16;4989454;28;19989;-65
2022/07/17 07:07:08;;;;;;;;;;;;;;;18.52;26.82;96578.13;5007342;28;20015;-64
2022/07/17 07:09:34;;;;;;;;;;;;;;;18.47;27.03;96572.53;5008745;28;20471;-66
2022/07/17 07:11:59;;;;;;;;;;;;;;;18.84;26.01;96568.63;5007975;28;20043;-63
2022/07/17 07:14:24;;;;;;;;;;;;;;;17.95;27.66;96570.31;5009169;28;20060;-63
2022/07/17 07:16:49;;;;;;;;;;;;;;;18.56;26.31;96570.47;4989192;28;19991;-65
2022/07/17 07:19:15;;;;;;;;;;;;;;;18.80;26.31;96576.31;5006081;28;20261;-64
2022/07/17 07:21:40;;;;;;;;;;;;;;;19.03;25.58;96577.75;5007171;28;19978;-65
2022/07/17 07:24:05;;;;;;;;;;;;;;;18.73;25.42;96573.59;5005333;28;20047;-64
2022/07/17 07:26:30;;;;;;;;;;;;;;;18.87;27.14;96574.44;5006767;28;19969;-64
2022/07/17 07:28:56;;;;;;;;;;;;;;;19.19;25.80;96573.78;5006528;28;20041;-65
2022/07/17 07:31:21;;;;;;;;;;;;;;;18.88;25.94;96561.78;5001941;28;19980;-65
2022/07/17 07:33:46;;;;;;;;;;;;;;;19.03;25.15;96562.38;5001472;28;19978;-65
2022/07/17 07:36:11;;;;;;;;;;;;;;;18.42;25.65;96548.03;5001185;28;19991;-65
2022/07/17 07:38:37;;;;;;;;;;;;;;;18.85;25.80;96546.00;5001770;28;20461;-65
2022/07/17 07:41:03;;;;;;;;;;;;;;;17.95;26.72;96554.16;5002675;28;19992;-65
2022/07/17 07:43:28;;;;;;;;;;;;;;;18.07;26.92;96556.28;5001785;28;19986;-64
2022/07/17 07:45:53;;;;;;;;;;;;;;;18.88;25.24;96553.69;5004854;28;19969;-66
2022/07/17 07:48:19;;;;;;;;;;;;;;;19.37;25.75;96543.47;5006810;28;20191;-64
2022/07/17 07:50:44;;;;;;;;;;;;;;;19.72;23.80;96545.81;5008405;28;19991;-65
2022/07/17 07:53:09;;;;;;;;;;;;;;;19.63;24.64;96554.38;5004740;28;19992;-65
2022/07/17 07:55:34;;;;;;;;;;;;;;;20.02;25.24;96559.88;5003305;28;19997;-65
2022/07/17 07:58:06;;;;;;;;;;;;;;;20.07;23.14;96554.63;5003413;28;20048;-65
2022/07/17 08:00:32;;;;;;;;;;;;;;;20.32;23.12;96560.09;5005011;28;20035;-65
2022/07/17 08:02:57;;;;;;;;;;;;;;;20.56;22.86;96551.41;5005437;28;20437;-65
2022/07/17 08:05:22;;;;;;;;;;;;;;;20.48;23.10;96552.50;5003633;28;20026;-64
2022/07/17 08:07:47;;;;;;;;;;;;;;;20.64;22.79;96553.03;4977674;28;20029;-65
2022/07/17 08:10:13;;;;;;;;;;;;;;;20.80;23.73;96557.06;4984605;28;20026;-65
2022/07/17 08:12:38;;;;;;;;;;;;;;;21.16;22.95;96560.91;5002451;28;20029;-63
2022/07/17 08:15:04;;;;;;;;;;;;;;;21.37;23.53;96553.41;5006277;28;20001;-64
2022/07/17 08:17:29;;;;;;;;;;;;;;;21.36;23.15;96554.47;5005822;28;20017;-65
2022/07/17 08:19:54;;;;;;;;;;;;;;;21.77;22.70;96561.09;5004005;28;20030;-64
2022/07/17 08:22:20;;;;;;;;;;;;;;;21.86;21.23;96561.59;5003718;28;20201;-63
2022/07/17 08:24:45;;;;;;;;;;;;;;;21.93;21.11;96555.31;5003469;28;20031;-65
2022/07/17 08:27:10;;;;;;;;;;;;;;;21.71;21.75;96553.88;5002695;28;20059;-65
2022/07/17 08:29:35;;;;;;;;;;;;;;;21.12;23.02;96567.81;5003674;28;20051;-65
2022/07/17 08:32:01;;;;;;;;;;;;;;;21.18;23.43;96563.38;5003424;28;20065;-66
2022/07/17 08:34:26;;;;;;;;;;;;;;;21.09;22.77;96560.97;5003394;28;20012;-63
2022/07/17 08:36:51;;;;;;;;;;;;;;;21.43;22.90;96549.00;5001774;28;20033;-64
2022/07/17 08:39:16;;;;;;;;;;;;;;;21.82;21.62;96557.69;5002554;28;20474;-65
2022/07/17 08:41:42;;;;;;;;;;;;;;;21.66;20.99;96551.03;5002114;28;19966;-65
2022/07/17 08:44:07;;;;;;;;;;;;;;;21.55;21.44;96541.75;4985128;28;20018;-63
2022/07/17 08:46:36;;;;;;;;;;;;;;;22.13;20.78;96542.28;5003202;28;19961;-64
2022/07/17 08:49:01;;;;;;;;;;;;;;;21.95;21.42;96545.03;5001177;28;19995;-63
2022/07/17 08:51:26;;;;;;;;;;;;;;;22.28;20.79;96546.47;4984781;28;19984;-64
2022/07/17 08:53:52;;;;;;;;;;;;;;;22.25;22.08;96549.63;5003598;28;20291;-64
2022/07/17 08:56:17;;;;;;;;;;;;;;;22.58;20.54;96553.78;5001548;28;19980;-64
2022/07/17 08:58:42;;;;;;;;;;;;;;;22.92;18.79;96554.03;5004088;28;20272;-65
2022/07/17 09:01:08;;;;;;;;;;;;;;;21.24;19.95;96543.53;5004623;28;19985;-64
2022/07/17 09:03:33;;;;;;;;;;;;;;;22.38;21.06;96546.75;5004007;28;19974;-64
2022/07/17 09:05:59;;;;;;;;;;;;;;;22.85;20.49;96544.38;5001570;28;20513;-66
2022/07/17 09:08:25;;;;;;;;;;;;;;;23.31;18.57;96550.03;5000655;28;20318;-65
2022/07/17 09:10:54;;;;;;;;;;;;;;;22.74;19.61;96549.53;5002670;28;19954;-64
2022/07/17 09:13:19;;;;;;;;;;;;;;;23.15;19.24;96551.59;5001659;28;20036;-64
2022/07/17 09:15:44;;;;;;;;;;;;;;;23.35;20.40;96556.66;5000593;28;20508;-66
2022/07/17 09:18:10;;;;;;;;;;;;;;;22.17;19.77;96552.69;5001999;28;20492;-57
2022/07/17 09:20:38;;;;;;;;;;;;;;;22.66;20.58;96555.31;4999936;28;19974;-63
2022/07/17 09:23:03;;;;;;;;;;;;;;;23.22;20.74;96559.63;4996291;28;20755;-61
2022/07/17 09:25:42;;;;;;;;;;;;;;;22.77;19.33;96551.78;5001521;28;19976;-64
2022/07/17 09:28:08;;;;;;;;;;;;;;;23.71;17.76;96553.88;4998393;28;20205;-60
2022/07/17 09:30:34;;;;;;;;;;;;;;;23.76;17.93;96556.72;5000207;28;20001;-63
2022/07/17 09:32:59;;;;;;;;;;;;;;;22.70;19.62;96547.53;4996351;28;20337;-64
2022/07/17 09:35:25;;;;;;;;;;;;;;;22.87;19.81;96553.91;4994773;28;20000;-62
2022/07/17 09:37:53;;;;;;;;;;;;;;;22.90;22.02;96561.59;5003397;28;19956;-63
2022/07/17 09:43:03;;;;;;;;;;;;;;;23.92;19.86;96555.13;4996948;28;20042;-63
2022/07/17 09:45:28;;;;;;;;;;;;;;;22.89;19.68;96565.38;4994690;28;20352;-62
2022/07/17 09:47:53;;;;;;;;;;;;;;;22.74;19.47;96556.88;4999717;28;19973;-63
2022/07/17 09:50:19;;;;;;;;;;;;;;;23.35;18.98;96555.84;4982869;28;19953;-63
2022/07/17 09:52:44;;;;;;;;;;;;;;;23.93;18.77;96548.63;4996615;28;20077;-62
2022/07/17 09:55:09;;;;;;;;;;;;;;;23.89;18.32;96555.63;4982883;28;20028;-62
2022/07/17 09:57:35;;;;;;;;;;;;;;;23.63;19.71;96560.53;5003923;28;19980;-63
2022/07/17 10:00:05;;;;;;;;;;;;;;;23.90;20.56;96567.31;5005018;28;19984;-63
2022/07/17 10:02:31;;;;;;;;;;;;;;;24.36;20.18;96572.84;5006533;28;19950;-62
2022/07/17 10:04:57;;;;;;;;;;;;;;;24.83;18.82;96557.28;5002355;28;19967;-64
2022/07/17 10:07:23;;;;;;;;;;;;;;;25.33;17.86;96568.41;5002400;28;20070;-63
2022/07/17 10:09:49;;;;;;;;;;;;;;;25.31;19.63;96567.81;5003271;28;20044;-62
2022/07/17 10:12:14;;;;;;;;;;;;;;;25.44;18.01;96572.09;5000543;28;20348;-63
2022/07/17 10:14:41;;;;;;;;;;;;;;;25.88;18.35;96571.31;4982401;28;20429;-63
2022/07/17 10:17:10;;;;;;;;;;;;;;;25.83;19.08;96561.16;4984646;28;19968;-64
2022/07/17 10:19:43;;;;;;;;;;;;;;;25.07;19.26;96576.19;5001726;28;19961;-62
2022/07/17 10:22:08;;;;;;;;;;;;;;;24.36;18.02;96577.44;4988266;28;20427;-63
2022/07/17 10:24:33;;;;;;;;;;;;;;;25.39;16.98;96567.38;5003749;28;19966;-62
2022/07/17 10:26:59;;;;;;;;;;;;;;;25.40;19.21;96576.38;4988675;28;20440;-64
2022/07/17 10:29:31;;;;;;;;;;;;;;;25.34;17.25;96573.59;5000259;28;20078;-63
2022/07/17 10:31:56;;;;;;;;;;;;;;;25.03;17.38;96575.03;4981098;28;19965;-64
2022/07/17 10:34:35;;;;;;;;;;;;;;;24.72;17.85;96578.06;4999533;28;20308;-64
2022/07/17 10:37:00;;;;;;;;;;;;;;;25.20;18.42;96580.47;5001506;28;20405;-63
2022/07/17 10:39:26;;;;;;;;;;;;;;;25.70;15.95;96578.72;4998669;28;19972;-64
2022/07/17 10:41:58;;;;;;;;;;;;;;;25.31;17.40;96576.81;5001580;28;19948;-62
2022/07/17 10:44:24;;;;;;;;;;;;;;;24.38;16.91;96580.75;4985228;28;19962;-61
2022/07/17 10:46:49;;;;;;;;;;;;;;;23.96;19.97;96579.94;4999075;28;19949;-62
2022/07/17 10:49:15;;;;;;;;;;;;;;;24.10;16.59;96569.59;5004507;28;19976;-64
2022/07/17 10:51:40;;;;;;;;;;;;;;;25.16;16.58;96569.25;4969898;28;19969;-62
2022/07/17 10:54:05;;;;;;;;;;;;;;;25.68;15.19;96566.44;4998317;28;20539;-63
2022/07/17 10:56:31;;;;;;;;;;;;;;;25.76;15.14;96570.63;4997988;28;20554;-64
2022/07/17 10:59:01;;;;;;;;;;;;;;;24.63;16.94;96574.09;4997988;28;20406;-64
2022/07/17 11:01:26;;;;;;;;;;;;;;;24.96;15.53;96567.06;4998156;28;19974;-64
2022/07/17 11:03:52;;;;;;;;;;;;;;;24.97;16.01;96563.25;4979476;28;20059;-64
2022/07/17 11:06:18;;;;;;;;;;;;;;;24.92;15.65;96563.19;4998368;28;19955;-63
2022/07/17 11:08:45;;;;;;;;;;;;;;;24.74;16.06;96558.78;4996488;28;20005;-64
2022/07/17 11:11:10;;;;;;;;;;;;;;;25.25;15.88;96563.38;4984609;28;20009;-64
2022/07/17 11:13:35;;;;;;;;;;;;;;;25.45;15.16;96558.22;5000346;28;19965;-58
2022/07/17 11:16:01;;;;;;;;;;;;;;;26.01;15.08;96561.91;4980729;28;19976;-62
2022/07/17 11:18:26;;;;;;;;;;;;;;;26.60;16.21;96557.63;5002265;28;19944;-61
2022/07/17 11:20:59;;;;;;;;;;;;;;;27.17;15.88;96557.25;5002267;28;19964;-61
2022/07/17 11:23:25;;;;;;;;;;;;;;;27.45;17.57;96554.41;4998549;28;19943;-61
2022/07/17 11:26:01;;;;;;;;;;;;;;;27.97;13.21;96555.47;4997426;28;19933;-63
2022/07/17 11:28:38;;;;;;;;;;;;;;;26.73;14.27;96559.13;4998114;28;20044;-62
2022/07/17 11:31:24;;;;;;;;;;;;;;;26.21;13.74;96555.88;4981356;28;19945;-62
2022/07/17 11:33:51;;;;;;;;;;;;;;;26.02;13.09;96560.03;4999553;28;19975;-61
2022/07/17 11:36:24;;;;;;;;;;;;;;;26.07;14.13;96557.38;4998769;28;19988;-62
2022/07/17 11:38:49;;;;;;;;;;;;;;;26.71;14.20;96547.63;4998792;28;19941;-62
2022/07/17 11:41:18;;;;;;;;;;;;;;;26.65;14.44;96556.03;4997784;28;19971;-61
2022/07/17 11:43:43;;;;;;;;;;;;;;;25.96;13.73;96562.69;4997435;28;19990;-61
2022/07/17 11:46:08;;;;;;;;;;;;;;;25.75;13.80;96560.78;4999032;28;20445;-62
2022/07/17 11:48:34;;;;;;;;;;;;;;;26.12;13.87;96551.97;4982432;28;20080;-64
2022/07/17 11:50:59;;;;;;;;;;;;;;;25.52;13.86;96563.50;5001176;28;20036;-63
2022/07/17 11:53:31;;;;;;;;;;;;;;;26.07;14.02;96558.19;5006237;28;20084;-62
2022/07/17 11:55:56;;;;;;;;;;;;;;;25.30;13.08;96549.81;5005952;28;20333;-63
2022/07/17 11:58:21;;;;;;;;;;;;;;;25.51;12.71;96550.13;5002504;28;20370;-63
2022/07/17 12:00:46;;;;;;;;;;;;;;;26.61;13.49;96555.72;5002293;28;20640;-64
2022/07/17 12:03:11;;;;;;;;;;;;;;;27.54;13.50;96554.72;4982806;28;19962;-63
2022/07/17 12:05:37;;;;;;;;;;;;;;;27.30;14.81;96555.16;5004447;28;19941;-64
2022/07/17 12:08:02;;;;;;;;;;;;;;;27.06;14.39;96553.63;5004240;28;19956;-62
2022/07/17 12:10:28;;;;;;;;;;;;;;;27.11;13.53;96555.56;5010580;28;19938;-63
2022/07/17 12:13:06;;;;;;;;;;;;;;;27.36;14.56;96554.09;5008853;28;20014;-63
2022/07/17 12:15:37;;;;;;;;;;;;;;;27.95;13.78;96549.44;5004257;28;20645;-64
2022/07/17 12:18:03;;;;;;;;;;;;;;;27.94;12.74;96547.78;5005904;28;19938;-63
2022/07/17 12:20:41;;;;;;;;;;;;;;;28.51;12.90;96550.66;5006797;28;19957;-62
2022/07/17 12:23:06;;;;;;;;;;;;;;;28.08;13.20;96539.09;5008720;28;19944;-64
2022/07/17 12:25:32;;;;;;;;;;;;;;;28.10;12.45;96545.09;5009055;28;20009;-63
2022/07/17 12:27:57;;;;;;;;;;;;;;;26.86;14.58;96540.63;5009024;28;20193;-62
2022/07/17 12:30:22;;;;;;;;;;;;;;;27.48;15.82;96537.47;5009041;28;19946;-62
2022/07/17 12:32:47;;;;;;;;;;;;;;;26.57;14.20;96539.03;4990069;28;20224;-64
2022/07/17 12:35:14;;;;;;;;;;;;;;;27.58;11.87;96544.91;5008124;28;19942;-62
2022/07/17 12:37:39;;;;;;;;;;;;;;;28.49;11.83;96539.19;5008312;28;19940;-62
2022/07/17 12:40:05;;;;;;;;;;;;;;;28.72;11.61;96531.53;4988336;28;19965;-62
2022/07/17 12:42:30;;;;;;;;;;;;;;;29.28;11.44;96535.31;5002566;28;19938;-63